Time;durP1;ratioP1;P1;durP2;ratioP2;P2;SDS_P1;SDS_P2;PMS_P1;PMS_P2;Temp;Humidity;BMP_temperature;BMP_pressure;BME280_temperature;BME280_humidity;BME280_pressure;Samples;Min_cycle;Max_cycle;Signal;HPM_P1;HPM_P2
2022/08/19 00:01:10;;;;;;;10.82;7.50;;;;;;;;;;5096417;28;20066;-75
2022/08/19 00:03:36;;;;;;;11.25;8.55;;;;;;;;;;5081145;28;20536;-74
2022/08/19 00:06:03;;;;;;;11.15;8.57;;;;;;;;;;5100561;28;20145;-74
2022/08/19 00:08:29;;;;;;;11.65;9.27;;;;;;;;;;5093827;28;20044;-74
2022/08/19 00:10:55;;;;;;;11.93;8.32;;;;;;;;;;5103760;28;20044;-74
2022/08/19 00:13:21;;;;;;;10.95;9.10;;;;;;;;;;5097443;28;20051;-75
2022/08/19 00:15:47;;;;;;;11.20;9.13;;;;;;;;;;5099778;28;20105;-73
2022/08/19 00:18:13;;;;;;;11.73;9.10;;;;;;;;;;5103244;28;20075;-74
2022/08/19 00:20:40;;;;;;;10.90;8.82;;;;;;;;;;5109943;28;20036;-74
2022/08/19 00:23:06;;;;;;;12.38;9.52;;;;;;;;;;5107548;28;20044;-74
2022/08/19 00:25:33;;;;;;;10.02;8.50;;;;;;;;;;5076222;28;20082;-74
2022/08/19 00:27:59;;;;;;;12.02;9.43;;;;;;;;;;5093274;28;20702;-74
2022/08/19 00:30:27;;;;;;;10.57;9.48;;;;;;;;;;5106359;28;20039;-73
2022/08/19 00:32:56;;;;;;;11.05;9.05;;;;;;;;;;5107558;28;20044;-74
2022/08/19 00:35:22;;;;;;;12.38;8.23;;;;;;;;;;5109289;28;20035;-74
2022/08/19 00:37:49;;;;;;;11.07;8.70;;;;;;;;;;5106583;28;20113;-73
2022/08/19 00:40:18;;;;;;;10.70;9.15;;;;;;;;;;5112432;28;20040;-74
2022/08/19 00:42:44;;;;;;;11.57;10.38;;;;;;;;;;5106113;28;20047;-74
2022/08/19 00:45:22;;;;;;;10.93;9.57;;;;;;;;;;5099995;28;20047;-74
2022/08/19 00:47:48;;;;;;;10.35;8.82;;;;;;;;;;5093245;28;20040;-73
2022/08/19 00:50:15;;;;;;;10.43;8.85;;;;;;;;;;5094229;28;20128;-74
2022/08/19 00:52:45;;;;;;;9.68;8.57;;;;;;;;;;5098336;28;20040;-74
2022/08/19 00:55:13;;;;;;;15.02;9.82;;;;;;;;;;5102787;28;20569;-74
2022/08/19 00:57:40;;;;;;;10.25;8.63;;;;;;;;;;5100521;28;20056;-74
2022/08/19 01:00:12;;;;;;;10.63;8.70;;;;;;;;;;5097902;28;20054;-75
2022/08/19 01:02:38;;;;;;;11.48;7.15;;;;;;;;;;5102511;28;20038;-74
2022/08/19 01:05:06;;;;;;;10.70;6.03;;;;;;;;;;5098229;28;20478;-74
2022/08/19 01:07:33;;;;;;;6.50;4.80;;;;;;;;;;5100752;28;20042;-75
2022/08/19 01:10:00;;;;;;;6.18;4.70;;;;;;;;;;5064549;28;20087;-74
2022/08/19 01:12:26;;;;;;;5.50;4.20;;;;;;;;;;5092300;28;20051;-74
2022/08/19 01:14:52;;;;;;;6.95;4.53;;;;;;;;;;5105828;28;20048;-73
2022/08/19 01:17:19;;;;;;;7.13;5.47;;;;;;;;;;5101775;28;20048;-74
2022/08/19 01:19:46;;;;;;;6.53;4.53;;;;;;;;;;5093047;28;20411;-74
2022/08/19 01:22:15;;;;;;;7.38;5.03;;;;;;;;;;5105284;28;20082;-74
2022/08/19 01:24:41;;;;;;;6.35;4.63;;;;;;;;;;5074069;28;20044;-74
2022/08/19 01:27:07;;;;;;;7.50;6.05;;;;;;;;;;5094237;28;20044;-74
2022/08/19 01:29:34;;;;;;;7.78;5.90;;;;;;;;;;5076057;28;20131;-74
2022/08/19 01:32:01;;;;;;;8.45;5.53;;;;;;;;;;5101413;28;20051;-73
2022/08/19 01:34:27;;;;;;;8.50;6.32;;;;;;;;;;5104871;28;20040;-74
2022/08/19 01:36:53;;;;;;;8.63;6.18;;;;;;;;;;5068093;28;20165;-74
2022/08/19 01:39:21;;;;;;;8.80;7.60;;;;;;;;;;5107970;28;20040;-73
2022/08/19 01:41:47;;;;;;;7.82;6.15;;;;;;;;;;5092268;28;20051;-74
2022/08/19 01:44:14;;;;;;;9.68;5.70;;;;;;;;;;5094602;28;20040;-74
2022/08/19 01:46:40;;;;;;;8.77;4.07;;;;;;;;;;5104592;28;20047;-74
2022/08/19 01:49:07;;;;;;;7.97;3.28;;;;;;;;;;5107378;28;20043;-75
2022/08/19 01:51:33;;;;;;;4.70;2.88;;;;;;;;;;5096095;28;20047;-74
2022/08/19 01:53:59;;;;;;;5.35;3.50;;;;;;;;;;5100932;28;20410;-74
2022/08/19 01:56:26;;;;;;;5.18;3.55;;;;;;;;;;5074352;28;20060;-73
2022/08/19 01:58:56;;;;;;;5.45;3.58;;;;;;;;;;5112409;28;20477;-74
2022/08/19 02:01:22;;;;;;;6.75;4.40;;;;;;;;;;5077977;28;20469;-74
2022/08/19 02:03:48;;;;;;;5.68;3.78;;;;;;;;;;5092313;28;20051;-73
2022/08/19 02:06:16;;;;;;;5.55;3.60;;;;;;;;;;5098268;28;20036;-73
2022/08/19 02:08:45;;;;;;;5.80;4.20;;;;;;;;;;5101533;28;20696;-74
2022/08/19 02:11:18;;;;;;;5.55;3.88;;;;;;;;;;5104699;28;20115;-74
2022/08/19 02:13:44;;;;;;;6.82;4.20;;;;;;;;;;5111907;28;20050;-74
2022/08/19 02:16:10;;;;;;;6.95;4.15;;;;;;;;;;5095167;28;20040;-73
2022/08/19 02:18:36;;;;;;;7.30;4.40;;;;;;;;;;5106015;28;20055;-73
2022/08/19 02:21:02;;;;;;;11.50;8.23;;;;;;;;;;5087414;28;20429;-74
2022/08/19 02:23:28;;;;;;;12.07;9.30;;;;;;;;;;5094672;28;20040;-75
2022/08/19 02:25:54;;;;;;;13.80;10.32;;;;;;;;;;5095678;28;20040;-74
2022/08/19 02:28:20;;;;;;;16.15;12.48;;;;;;;;;;5100079;28;20040;-73
2022/08/19 02:30:46;;;;;;;18.13;12.40;;;;;;;;;;5104549;28;20490;-74
2022/08/19 02:33:12;;;;;;;16.17;12.30;;;;;;;;;;5087882;28;20400;-74
2022/08/19 02:35:41;;;;;;;13.40;10.73;;;;;;;;;;5100183;28;20038;-74
2022/08/19 02:38:25;;;;;;;15.13;11.48;;;;;;;;;;5115361;28;20043;-75
2022/08/19 02:40:53;;;;;;;13.10;9.93;;;;;;;;;;5113709;28;20047;-74
2022/08/19 02:43:22;;;;;;;11.85;8.85;;;;;;;;;;5099863;28;20059;-74
2022/08/19 02:45:49;;;;;;;9.82;7.75;;;;;;;;;;5114675;28;20047;-74
2022/08/19 02:48:20;;;;;;;6.60;4.10;;;;;;;;;;5114750;28;20043;-73
2022/08/19 02:50:46;;;;;;;9.10;5.18;;;;;;;;;;5091158;28;20100;-73
2022/08/19 02:53:12;;;;;;;10.35;5.63;;;;;;;;;;5088961;28;20063;-73
2022/08/19 02:55:46;;;;;;;10.00;5.40;;;;;;;;;;5110066;28;20448;-73
2022/08/19 02:58:12;;;;;;;9.50;6.13;;;;;;;;;;5097219;28;20048;-73
2022/08/19 03:00:45;;;;;;;9.75;5.97;;;;;;;;;;5097649;28;20080;-74
2022/08/19 03:03:13;;;;;;;8.35;5.47;;;;;;;;;;5101414;28;20101;-72
2022/08/19 03:05:39;;;;;;;9.18;5.72;;;;;;;;;;5084943;28;20048;-73
2022/08/19 03:08:06;;;;;;;11.63;7.10;;;;;;;;;;5094210;28;20063;-73
2022/08/19 03:10:33;;;;;;;8.88;5.85;;;;;;;;;;5095435;28;20489;-73
2022/08/19 03:12:59;;;;;;;7.80;5.00;;;;;;;;;;5100370;28;20044;-73
2022/08/19 03:15:25;;;;;;;13.77;5.78;;;;;;;;;;5110348;28;20040;-74
2022/08/19 03:17:52;;;;;;;8.77;5.30;;;;;;;;;;5110765;28;20557;-74
2022/08/19 03:20:18;;;;;;;7.88;5.85;;;;;;;;;;5095322;28;20035;-74
2022/08/19 03:22:44;;;;;;;5.95;4.43;;;;;;;;;;5110799;28;20036;-74
2022/08/19 03:25:11;;;;;;;6.25;3.72;;;;;;;;;;5112484;28;20092;-74
2022/08/19 03:27:37;;;;;;;5.22;3.05;;;;;;;;;;5088857;28;20126;-73
2022/08/19 03:30:04;;;;;;;5.57;2.80;;;;;;;;;;5076749;28;20052;-74
2022/08/19 03:32:30;;;;;;;4.57;2.58;;;;;;;;;;5095101;28;20047;-74
2022/08/19 03:34:56;;;;;;;4.85;2.72;;;;;;;;;;5093524;28;20402;-73
2022/08/19 03:37:22;;;;;;;7.05;4.10;;;;;;;;;;5095723;28;20064;-73
2022/08/19 03:39:48;;;;;;;11.25;7.00;;;;;;;;;;5092850;28;20093;-74
2022/08/19 03:42:16;;;;;;;8.65;5.25;;;;;;;;;;5096826;28;20036;-74
2022/08/19 03:44:44;;;;;;;8.45;5.25;;;;;;;;;;5108355;28;20044;-73
2022/08/19 03:47:16;;;;;;;9.18;5.68;;;;;;;;;;5103678;28;20047;-74
2022/08/19 03:49:42;;;;;;;8.27;5.53;;;;;;;;;;5076410;28;20055;-74
2022/08/19 03:52:08;;;;;;;7.68;5.18;;;;;;;;;;5093718;28;20055;-75
2022/08/19 03:54:34;;;;;;;8.75;5.50;;;;;;;;;;5104213;28;20043;-74
2022/08/19 03:57:00;;;;;;;9.32;6.57;;;;;;;;;;5108429;28;20040;-72
2022/08/19 03:59:28;;;;;;;8.95;6.00;;;;;;;;;;5096176;28;20406;-73
2022/08/19 04:01:56;;;;;;;9.68;6.97;;;;;;;;;;5103284;28;20043;-73
2022/08/19 04:04:22;;;;;;;10.82;7.85;;;;;;;;;;5092958;28;20068;-73
2022/08/19 04:06:48;;;;;;;9.65;6.72;;;;;;;;;;5100532;28;20065;-73
2022/08/19 04:09:14;;;;;;;7.90;4.57;;;;;;;;;;5097376;28;20451;-73
2022/08/19 04:11:42;;;;;;;8.90;5.50;;;;;;;;;;5059259;28;20036;-73
2022/08/19 04:14:10;;;;;;;7.18;4.28;;;;;;;;;;5081840;28;20443;-73
2022/08/19 04:16:36;;;;;;;8.23;4.22;;;;;;;;;;5098524;28;20043;-74
2022/08/19 04:19:04;;;;;;;5.45;3.40;;;;;;;;;;5105790;28;20050;-73
2022/08/19 04:21:30;;;;;;;7.22;3.90;;;;;;;;;;5076747;28;20040;-74
2022/08/19 04:23:56;;;;;;;6.32;4.00;;;;;;;;;;5080241;28;20044;-73
2022/08/19 04:26:27;;;;;;;7.18;3.80;;;;;;;;;;5093370;28;20040;-74
2022/08/19 04:28:54;;;;;;;6.10;3.88;;;;;;;;;;5096789;28;20406;-74
2022/08/19 04:31:21;;;;;;;8.68;4.50;;;;;;;;;;5076306;28;20036;-74
2022/08/19 04:33:47;;;;;;;9.75;5.60;;;;;;;;;;5078120;28;20036;-73
2022/08/19 04:36:20;;;;;;;9.55;5.78;;;;;;;;;;5094672;28;20039;-73
2022/08/19 04:38:46;;;;;;;11.30;6.93;;;;;;;;;;5094834;28;20401;-73
2022/08/19 04:43:57;;;;;;;13.60;7.35;;;;;;;;;;5095986;28;20088;-73
2022/08/19 04:46:23;;;;;;;8.35;6.05;;;;;;;;;;5093696;28;20132;-74
2022/08/19 04:48:49;;;;;;;9.20;7.47;;;;;;;;;;5079086;28;20052;-73
2022/08/19 04:51:15;;;;;;;11.48;7.70;;;;;;;;;;5079312;28;20464;-74
2022/08/19 04:53:42;;;;;;;10.13;7.15;;;;;;;;;;5057734;28;20051;-74
2022/08/19 04:56:10;;;;;;;10.77;8.15;;;;;;;;;;5101649;28;20079;-74
2022/08/19 04:58:37;;;;;;;11.75;9.05;;;;;;;;;;5093497;28;20497;-74
2022/08/19 05:01:04;;;;;;;11.27;8.35;;;;;;;;;;5096563;28;20190;-72
2022/08/19 05:03:33;;;;;;;10.40;8.05;;;;;;;;;;5092432;28;20047;-74
2022/08/19 05:06:07;;;;;;;11.93;8.63;;;;;;;;;;5099962;28;20039;-74
2022/08/19 05:08:33;;;;;;;11.43;9.40;;;;;;;;;;5095231;28;20450;-74
2022/08/19 05:11:00;;;;;;;14.27;9.57;;;;;;;;;;5096979;28;20056;-74
2022/08/19 05:13:26;;;;;;;11.20;9.23;;;;;;;;;;5104612;28;20126;-74
2022/08/19 05:15:59;;;;;;;12.75;9.02;;;;;;;;;;5094386;28;20550;-74
2022/08/19 05:23:58;;;;;;;11.27;8.02;;;;;;;;;;5101003;28;20056;-74
2022/08/19 05:26:28;;;;;;;9.02;7.60;;;;;;;;;;5095438;28;20047;-73
2022/08/19 05:28:55;;;;;;;11.35;7.28;;;;;;;;;;5093468;28;20043;-73
2022/08/19 05:31:21;;;;;;;11.13;8.55;;;;;;;;;;5079079;28;20039;-73
2022/08/19 05:33:47;;;;;;;9.98;7.53;;;;;;;;;;5094853;28;20126;-73
2022/08/19 05:36:13;;;;;;;11.20;7.75;;;;;;;;;;5097713;28;20048;-73
2022/08/19 05:38:39;;;;;;;9.13;7.10;;;;;;;;;;5101155;28;20048;-73
2022/08/19 05:41:13;;;;;;;11.90;8.90;;;;;;;;;;5101700;28;20039;-73
2022/08/19 05:43:39;;;;;;;11.13;7.93;;;;;;;;;;5113099;28;20050;-74
2022/08/19 05:46:06;;;;;;;9.80;8.05;;;;;;;;;;5091736;28;20051;-74
2022/08/19 05:48:35;;;;;;;9.43;7.13;;;;;;;;;;5093021;28;20032;-74
2022/08/19 05:51:06;;;;;;;10.48;7.10;;;;;;;;;;5087791;28;20052;-74
2022/08/19 05:53:33;;;;;;;13.07;9.30;;;;;;;;;;5079304;28;20052;-74
2022/08/19 05:56:03;;;;;;;10.70;8.60;;;;;;;;;;5093843;28;20452;-74
2022/08/19 05:58:30;;;;;;;12.63;11.32;;;;;;;;;;5092350;28;20056;-74
2022/08/19 06:00:56;;;;;;;13.60;12.23;;;;;;;;;;5092351;28;20055;-74
2022/08/19 06:03:22;;;;;;;12.63;11.00;;;;;;;;;;5077692;28;20071;-75
2022/08/19 06:05:48;;;;;;;12.05;10.85;;;;;;;;;;5096255;28;20036;-75
2022/08/19 06:08:14;;;;;;;11.90;10.60;;;;;;;;;;5096111;28;20051;-75
2022/08/19 06:10:40;;;;;;;12.35;11.05;;;;;;;;;;5092697;28;20485;-75
2022/08/19 06:13:06;;;;;;;12.35;11.05;;;;;;;;;;5092882;28;20149;-75
2022/08/19 06:15:32;;;;;;;12.52;10.93;;;;;;;;;;5091902;28;20036;-75
2022/08/19 06:17:58;;;;;;;11.73;10.52;;;;;;;;;;5093000;28;20074;-75
2022/08/19 06:20:24;;;;;;;12.75;11.40;;;;;;;;;;5094693;28;20105;-75
2022/08/19 06:22:51;;;;;;;12.90;11.45;;;;;;;;;;5092392;28;20036;-75
2022/08/19 06:25:17;;;;;;;12.68;11.38;;;;;;;;;;5088050;28;20040;-75
2022/08/19 06:27:44;;;;;;;11.70;10.48;;;;;;;;;;5073030;28;20040;-75
2022/08/19 06:30:11;;;;;;;12.63;11.35;;;;;;;;;;5095634;28;20039;-74
2022/08/19 06:32:37;;;;;;;13.90;11.82;;;;;;;;;;5096765;28;20047;-74
2022/08/19 06:35:04;;;;;;;14.50;11.50;;;;;;;;;;5098591;28;20055;-74
2022/08/19 06:37:30;;;;;;;12.45;11.13;;;;;;;;;;5103834;28;20117;-75
2022/08/19 06:39:56;;;;;;;13.10;11.80;;;;;;;;;;5092528;28;20068;-74
2022/08/19 06:42:22;;;;;;;10.98;9.45;;;;;;;;;;5104446;28;20062;-73
2022/08/19 06:44:49;;;;;;;12.43;10.90;;;;;;;;;;5105338;28;20044;-73
2022/08/19 06:47:17;;;;;;;11.10;10.00;;;;;;;;;;5085070;28;20052;-73
2022/08/19 06:49:43;;;;;;;12.75;10.30;;;;;;;;;;5105658;28;20135;-73
2022/08/19 06:52:12;;;;;;;12.13;10.50;;;;;;;;;;5083209;28;20096;-73
2022/08/19 06:54:39;;;;;;;11.55;9.13;;;;;;;;;;5112450;28;20055;-73
2022/08/19 06:57:07;;;;;;;11.57;10.38;;;;;;;;;;5076324;28;20107;-73
2022/08/19 06:59:33;;;;;;;12.57;10.15;;;;;;;;;;5095612;28;20189;-73
2022/08/19 07:02:01;;;;;;;11.95;10.07;;;;;;;;;;5101576;28;20083;-73
2022/08/19 07:04:28;;;;;;;10.95;9.27;;;;;;;;;;5095476;28;20040;-73
2022/08/19 07:07:07;;;;;;;10.07;8.02;;;;;;;;;;5096499;28;20047;-73
2022/08/19 07:09:33;;;;;;;11.30;9.07;;;;;;;;;;5096196;28;20490;-74
2022/08/19 07:12:01;;;;;;;9.88;7.72;;;;;;;;;;5113728;28;20035;-74
2022/08/19 07:14:28;;;;;;;10.68;7.97;;;;;;;;;;5102101;28;20052;-73
2022/08/19 07:16:55;;;;;;;9.68;7.35;;;;;;;;;;5097807;28;20048;-73
2022/08/19 07:19:21;;;;;;;10.60;7.57;;;;;;;;;;5105887;28;20467;-73
2022/08/19 07:21:49;;;;;;;10.25;7.75;;;;;;;;;;5095419;28;20040;-73
2022/08/19 07:24:15;;;;;;;9.23;6.82;;;;;;;;;;5097869;28;20135;-74
2022/08/19 07:26:43;;;;;;;9.55;7.15;;;;;;;;;;5107921;28;20464;-73
2022/08/19 07:29:09;;;;;;;10.32;7.35;;;;;;;;;;5110066;28;20478;-74
2022/08/19 07:31:36;;;;;;;8.80;6.65;;;;;;;;;;5113081;28;20044;-73
2022/08/19 07:34:06;;;;;;;9.57;7.18;;;;;;;;;;5079199;28;20418;-73
2022/08/19 07:36:32;;;;;;;11.87;7.63;;;;;;;;;;5101290;28;20413;-74
2022/08/19 07:38:59;;;;;;;9.70;7.35;;;;;;;;;;5109088;28;20366;-74
2022/08/19 07:41:28;;;;;;;9.77;6.55;;;;;;;;;;5104461;28;20055;-74
2022/08/19 07:43:54;;;;;;;10.50;6.85;;;;;;;;;;5114394;28;20051;-74
2022/08/19 07:46:20;;;;;;;10.55;7.10;;;;;;;;;;5101114;28;20048;-74
2022/08/19 07:48:47;;;;;;;8.77;7.30;;;;;;;;;;5115010;28;20418;-74
2022/08/19 07:51:13;;;;;;;10.30;8.30;;;;;;;;;;5103459;28;20165;-74
2022/08/19 07:53:40;;;;;;;10.95;7.75;;;;;;;;;;5094985;28;20040;-74
2022/08/19 07:56:06;;;;;;;10.60;7.55;;;;;;;;;;5097830;28;20590;-74
2022/08/19 07:58:33;;;;;;;10.02;8.30;;;;;;;;;;5094955;28;20073;-74
2022/08/19 08:01:00;;;;;;;9.88;7.85;;;;;;;;;;5107724;28;20354;-74
2022/08/19 08:09:12;;;;;;;10.45;7.45;;;;;;;;;;5114493;28;20432;-73
2022/08/19 08:11:42;;;;;;;9.95;8.15;;;;;;;;;;5106000;28;20048;-73
2022/08/19 08:14:09;;;;;;;10.00;7.80;;;;;;;;;;5098445;28;20051;-73
2022/08/19 08:16:36;;;;;;;9.52;7.80;;;;;;;;;;5113097;28;20504;-73
2022/08/19 08:19:05;;;;;;;11.02;8.50;;;;;;;;;;5107784;28;20059;-73
2022/08/19 08:21:31;;;;;;;11.25;7.72;;;;;;;;;;5095945;28;20059;-73
2022/08/19 08:23:57;;;;;;;11.63;9.07;;;;;;;;;;5111756;28;20181;-73
2022/08/19 08:26:23;;;;;;;9.60;8.60;;;;;;;;;;5082020;28;20040;-73
2022/08/19 08:28:49;;;;;;;11.45;8.65;;;;;;;;;;5094002;28;20067;-74
2022/08/19 08:31:15;;;;;;;12.07;10.55;;;;;;;;;;5059465;28;20055;-73
2022/08/19 08:33:42;;;;;;;11.43;10.23;;;;;;;;;;5107470;28;20044;-74
2022/08/19 08:36:08;;;;;;;12.45;10.75;;;;;;;;;;5074655;28;20051;-73
2022/08/19 08:38:35;;;;;;;10.80;9.70;;;;;;;;;;5097712;28;20052;-73
2022/08/19 08:41:06;;;;;;;12.18;10.73;;;;;;;;;;5093436;28;20043;-74
2022/08/19 08:43:42;;;;;;;12.85;10.90;;;;;;;;;;5096822;28;20036;-73
2022/08/19 08:46:09;;;;;;;12.52;9.27;;;;;;;;;;5097143;28;20078;-73
2022/08/19 08:49:11;;;;;;;11.77;9.95;;;;;;;;;;5097864;28;20124;-73
2022/08/19 08:51:41;;;;;;;12.85;9.65;;;;;;;;;;5016733;28;20038;-73
2022/08/19 08:54:08;;;;;;;12.50;9.48;;;;;;;;;;5027591;28;20136;-72
2022/08/19 08:56:34;;;;;;;10.38;9.10;;;;;;;;;;5025361;28;20046;-73
2022/08/19 08:59:07;;;;;;;10.63;8.77;;;;;;;;;;5025246;28;20050;-73
2022/08/19 09:01:33;;;;;;;12.45;9.30;;;;;;;;;;5025765;28;20099;-73
2022/08/19 09:03:59;;;;;;;12.07;9.65;;;;;;;;;;5028150;28;20069;-73
2022/08/19 09:06:25;;;;;;;11.45;9.30;;;;;;;;;;5028145;28;20151;-73
2022/08/19 09:08:54;;;;;;;10.40;7.50;;;;;;;;;;5030507;28;20104;-73
2022/08/19 09:11:31;;;;;;;10.32;8.30;;;;;;;;;;5028074;28;20069;-73
2022/08/19 09:14:06;;;;;;;12.50;9.23;;;;;;;;;;5012918;28;20504;-73
2022/08/19 09:16:34;;;;;;;11.20;8.32;;;;;;;;;;5029595;28;20140;-73
2022/08/19 09:19:04;;;;;;;10.35;7.38;;;;;;;;;;5029837;28;20136;-73
2022/08/19 09:21:30;;;;;;;9.98;7.25;;;;;;;;;;5025700;28;20702;-73
2022/08/19 09:23:57;;;;;;;9.80;7.68;;;;;;;;;;5030407;28;20046;-73
2022/08/19 09:26:24;;;;;;;10.05;8.43;;;;;;;;;;5093494;28;20055;-73
2022/08/19 09:28:52;;;;;;;9.68;6.57;;;;;;;;;;5100117;28;20090;-73
2022/08/19 09:31:20;;;;;;;9.95;8.02;;;;;;;;;;5098463;28;20482;-74
2022/08/19 09:33:46;;;;;;;7.45;6.15;;;;;;;;;;5100696;28;20127;-75
2022/08/19 09:36:13;;;;;;;9.85;7.07;;;;;;;;;;5093153;28;20044;-74
2022/08/19 09:38:44;;;;;;;10.02;6.82;;;;;;;;;;5074562;28;20090;-74
2022/08/19 09:41:12;;;;;;;;;;;;;;;;;;5106524;28;20105;-74
2022/08/19 09:43:38;;;;;;;8.93;6.55;;;;;;;;;;5093638;28;19920;-74
2022/08/19 09:46:08;;;;;;;7.25;4.45;;;;;;;;;;5108628;28;20040;-74
2022/08/19 09:48:34;;;;;;;;;;;;;;;;;;5078406;28;20043;-74
2022/08/19 09:51:05;;;;;;;8.75;7.05;;;;;;;;;;5102492;28;19931;-74
2022/08/19 09:53:31;;;;;;;7.65;5.20;;;;;;;;;;5106324;28;20443;-74
2022/08/19 09:55:57;;;;;;;9.52;4.95;;;;;;;;;;5108121;28;20071;-74
2022/08/19 09:58:27;;;;;;;9.60;6.90;;;;;;;;;;5089413;28;21806;-74
2022/08/19 10:00:54;;;;;;;9.15;5.70;;;;;;;;;;5108913;28;20126;-75
2022/08/19 10:03:20;;;;;;;7.68;5.95;;;;;;;;;;5113065;28;20071;-73
2022/08/19 10:05:49;;;;;;;8.60;5.53;;;;;;;;;;5100959;28;20135;-73
2022/08/19 10:08:19;;;;;;;8.20;5.40;;;;;;;;;;5111486;28;20049;-74
2022/08/19 10:10:45;;;;;;;9.25;7.13;;;;;;;;;;5095123;28;20374;-73
2022/08/19 10:13:12;;;;;;;9.38;7.07;;;;;;;;;;5112016;28;20040;-75
2022/08/19 10:15:41;;;;;;;11.63;6.05;;;;;;;;;;5111742;28;20460;-75
2022/08/19 10:18:07;;;;;;;7.90;5.72;;;;;;;;;;5109091;28;20051;-75
2022/08/19 10:20:35;;;;;;;6.57;4.40;;;;;;;;;;5092998;28;20040;-76
2022/08/19 10:23:02;;;;;;;8.40;5.55;;;;;;;;;;5092658;28;20140;-74
2022/08/19 10:25:28;;;;;;;7.43;4.97;;;;;;;;;;5091932;28;20040;-75
2022/08/19 10:27:54;;;;;;;8.60;6.10;;;;;;;;;;5093196;28;20055;-76
2022/08/19 10:30:21;;;;;;;8.27;5.63;;;;;;;;;;5077611;28;20409;-77
2022/08/19 10:32:47;;;;;;;10.35;6.10;;;;;;;;;;5103189;28;20036;-76
2022/08/19 10:35:14;;;;;;;7.82;5.55;;;;;;;;;;5102241;28;20047;-77
2022/08/19 10:37:40;;;;;;;8.38;6.15;;;;;;;;;;5094181;28;20074;-76
2022/08/19 10:40:07;;;;;;;7.53;5.82;;;;;;;;;;5107755;28;20404;-77
2022/08/19 10:42:33;;;;;;;9.35;5.22;;;;;;;;;;5098808;28;20047;-76
2022/08/19 10:44:59;;;;;;;6.55;4.80;;;;;;;;;;5105038;28;20505;-78
2022/08/19 10:47:25;;;;;;;7.22;4.78;;;;;;;;;;5118310;28;20389;-78
2022/08/19 10:52:49;;;;;;;6.85;5.07;;;;;;;;;;5018553;28;20053;-76
2022/08/19 10:57:59;;;;;;;7.53;4.57;;;;;;;;;;5019375;28;20054;-76
2022/08/19 11:00:26;;;;;;;8.00;5.32;;;;;;;;;;5013894;28;20050;-77
2022/08/19 11:02:53;;;;;;;9.15;6.07;;;;;;;;;;5023844;28;20057;-77
2022/08/19 11:05:19;;;;;;;8.00;5.30;;;;;;;;;;5021853;28;20049;-77
2022/08/19 11:07:45;;;;;;;8.25;5.70;;;;;;;;;;5028120;28;20056;-76
2022/08/19 11:10:13;;;;;;;7.90;5.38;;;;;;;;;;5041551;28;20068;-76
2022/08/19 11:12:40;;;;;;;8.63;5.63;;;;;;;;;;5022076;28;20073;-79
2022/08/19 11:15:08;;;;;;;8.73;6.05;;;;;;;;;;5000041;28;20049;-77
2022/08/19 11:17:35;;;;;;;7.22;5.80;;;;;;;;;;5029239;28;20042;-77
2022/08/19 11:20:04;;;;;;;7.32;6.13;;;;;;;;;;5032149;28;20434;-77
2022/08/19 11:22:30;;;;;;;8.25;6.38;;;;;;;;;;5033529;28;20136;-77
2022/08/19 11:24:56;;;;;;;8.02;6.43;;;;;;;;;;5027930;28;20045;-77
2022/08/19 11:27:22;;;;;;;9.63;7.53;;;;;;;;;;5015954;28;20049;-78
2022/08/19 11:29:48;;;;;;;9.48;6.57;;;;;;;;;;5077085;28;20047;-77
2022/08/19 11:32:15;;;;;;;10.13;6.15;;;;;;;;;;5105388;28;20048;-77
2022/08/19 11:34:41;;;;;;;9.88;7.47;;;;;;;;;;5115946;28;20446;-77
2022/08/19 11:37:08;;;;;;;8.73;6.13;;;;;;;;;;5100129;28;20396;-77
2022/08/19 11:39:36;;;;;;;7.43;5.70;;;;;;;;;;5113033;28;20040;-76
2022/08/19 11:42:54;;;;;;;7.32;5.50;;;;;;;;;;5091757;28;20504;-78
2022/08/19 11:44:49;;;;;;;9.27;6.50;;;;;;;;;;5118227;28;20052;-78
2022/08/19 11:47:15;;;;;;;8.32;5.82;;;;;;;;;;5117274;28;20365;-77
2022/08/19 11:49:42;;;;;;;9.80;6.43;;;;;;;;;;5109054;28;20062;-75
2022/08/19 11:52:08;;;;;;;10.32;6.50;;;;;;;;;;5101127;28;20055;-76
2022/08/19 11:54:34;;;;;;;8.20;6.13;;;;;;;;;;5095832;28;20054;-78
2022/08/19 11:57:02;;;;;;;9.32;5.50;;;;;;;;;;5098770;28;20387;-81
2022/08/19 11:59:29;;;;;;;7.80;6.00;;;;;;;;;;5097848;28;20556;-78
2022/08/19 12:01:55;;;;;;;7.85;5.95;;;;;;;;;;5100483;28;20067;-82
2022/08/19 12:04:21;;;;;;;7.82;5.57;;;;;;;;;;5083126;28;20108;-82
2022/08/19 12:06:49;;;;;;;8.50;5.50;;;;;;;;;;5113995;28;20504;-73
2022/08/19 12:11:40;;;;;;;8.23;6.43;;;;;;;;;;5116160;27;20709;-75
2022/08/19 12:14:06;;;;;;;10.00;6.00;;;;;;;;;;5100809;28;20052;-78
2022/08/19 12:16:33;;;;;;;8.73;6.18;;;;;;;;;;5077231;28;20071;-79
2022/08/19 12:19:03;;;;;;;6.68;5.28;;;;;;;;;;5093098;28;20840;-78
2022/08/19 12:21:29;;;;;;;8.23;5.57;;;;;;;;;;5094192;28;20098;-79
2022/08/19 12:23:56;;;;;;;7.35;5.05;;;;;;;;;;5100886;28;20076;-78
2022/08/19 12:26:23;;;;;;;7.18;5.20;;;;;;;;;;5093446;28;20089;-79
2022/08/19 12:28:49;;;;;;;8.00;5.15;;;;;;;;;;5101933;28;20051;-78
2022/08/19 12:31:16;;;;;;;6.78;5.20;;;;;;;;;;5109561;28;20452;-80
2022/08/19 12:33:42;;;;;;;8.55;6.30;;;;;;;;;;5088429;28;20044;-78
2022/08/19 12:36:10;;;;;;;7.10;5.40;;;;;;;;;;5091970;28;20037;-78
2022/08/19 12:38:36;;;;;;;7.72;5.53;;;;;;;;;;5092234;28;20123;-77
2022/08/19 12:41:05;;;;;;;6.95;5.28;;;;;;;;;;5095019;28;20040;-78
2022/08/19 12:43:32;;;;;;;5.90;4.85;;;;;;;;;;5094694;28;20044;-77
2022/08/19 12:45:58;;;;;;;7.55;5.55;;;;;;;;;;5096340;28;20045;-78
2022/08/19 12:48:24;;;;;;;7.47;5.85;;;;;;;;;;5086700;28;20064;-78
2022/08/19 12:50:50;;;;;;;9.00;5.70;;;;;;;;;;5081938;28;20037;-79
2022/08/19 12:53:16;;;;;;;9.48;5.38;;;;;;;;;;5093583;28;20093;-78
2022/08/19 12:55:43;;;;;;;8.38;5.80;;;;;;;;;;5095228;28;20040;-77
2022/08/19 12:58:09;;;;;;;7.90;6.07;;;;;;;;;;5091421;28;20042;-79
2022/08/19 13:00:35;;;;;;;9.48;6.53;;;;;;;;;;5094252;28;20047;-78
2022/08/19 13:03:01;;;;;;;8.00;6.07;;;;;;;;;;5073749;28;20521;-78
2022/08/19 13:05:29;;;;;;;8.15;5.40;;;;;;;;;;5092273;28;20073;-78
2022/08/19 13:07:56;;;;;;;7.60;5.38;;;;;;;;;;5079261;28;20055;-78
2022/08/19 13:10:24;;;;;;;9.95;5.55;;;;;;;;;;5090752;28;20055;-79
2022/08/19 13:12:54;;;;;;;7.75;5.75;;;;;;;;;;5083588;28;20064;-78
2022/08/19 13:15:21;;;;;;;7.93;5.28;;;;;;;;;;5094630;28;20036;-77
2022/08/19 13:17:51;;;;;;;9.60;6.05;;;;;;;;;;5094562;28;20119;-77
2022/08/19 13:20:18;;;;;;;9.23;7.03;;;;;;;;;;5091752;28;20054;-78
2022/08/19 13:22:45;;;;;;;9.27;6.72;;;;;;;;;;5080900;28;20287;-77
2022/08/19 13:25:11;;;;;;;11.60;7.13;;;;;;;;;;5079804;28;20478;-77
2022/08/19 13:27:38;;;;;;;8.40;6.60;;;;;;;;;;5078782;28;20040;-77
2022/08/19 13:35:34;;;;;;;7.85;5.47;;;;;;;;;;5076046;28;20146;-77
2022/08/19 13:38:04;;;;;;;6.88;4.93;;;;;;;;;;5060633;28;20478;-77
2022/08/19 13:40:33;;;;;;;6.53;4.70;;;;;;;;;;5076242;28;20036;-78
2022/08/19 13:43:00;;;;;;;7.55;4.97;;;;;;;;;;5077129;28;20052;-78
2022/08/19 13:45:28;;;;;;;6.45;4.63;;;;;;;;;;5073374;28;20033;-78
2022/08/19 13:47:55;;;;;;;7.82;4.20;;;;;;;;;;5057082;28;20513;-78
2022/08/19 13:50:25;;;;;;;6.00;4.25;;;;;;;;;;5077947;28;20045;-78
2022/08/19 13:52:51;;;;;;;6.60;4.13;;;;;;;;;;5076114;28;20053;-78
2022/08/19 13:55:17;;;;;;;7.30;3.65;;;;;;;;;;5079164;28;20041;-77
2022/08/19 13:57:44;;;;;;;5.97;3.80;;;;;;;;;;5059372;28;20105;-78
2022/08/19 14:00:12;;;;;;;5.97;3.22;;;;;;;;;;5078186;28;20044;-78
2022/08/19 14:02:38;;;;;;;6.95;3.65;;;;;;;;;;5042426;28;20090;-78
2022/08/19 14:05:09;;;;;;;6.82;3.72;;;;;;;;;;5073100;28;20048;-78
2022/08/19 14:07:35;;;;;;;9.70;3.80;;;;;;;;;;5076088;28;20084;-77
2022/08/19 14:10:02;;;;;;;6.72;3.47;;;;;;;;;;5077719;28;20060;-79
2022/08/19 14:12:28;;;;;;;6.05;3.50;;;;;;;;;;5077343;28;20114;-79
2022/08/19 14:14:54;;;;;;;5.47;3.53;;;;;;;;;;5080623;28;20040;-77
2022/08/19 14:17:21;;;;;;;7.47;3.17;;;;;;;;;;5079860;28;20048;-79
2022/08/19 14:19:47;;;;;;;4.93;2.80;;;;;;;;;;5060884;28;20053;-78
2022/08/19 14:22:13;;;;;;;5.93;3.38;;;;;;;;;;5077270;28;20070;-79
2022/08/19 14:24:39;;;;;;;6.18;3.45;;;;;;;;;;5075246;28;20040;-77
2022/08/19 14:27:06;;;;;;;6.25;3.50;;;;;;;;;;5057778;28;20044;-78
2022/08/19 14:29:32;;;;;;;7.05;3.55;;;;;;;;;;5076902;28;20049;-78
2022/08/19 14:31:58;;;;;;;6.78;3.40;;;;;;;;;;5060118;28;20040;-77
2022/08/19 14:34:25;;;;;;;4.85;3.20;;;;;;;;;;5075556;28;20064;-77
2022/08/19 14:36:51;;;;;;;6.82;3.63;;;;;;;;;;5077672;28;20049;-77
2022/08/19 14:39:17;;;;;;;6.43;4.53;;;;;;;;;;5078194;28;20135;-77
2022/08/19 14:41:44;;;;;;;7.18;4.50;;;;;;;;;;5060388;28;20075;-76
2022/08/19 14:44:12;;;;;;;7.72;4.57;;;;;;;;;;5076131;28;20078;-76
2022/08/19 14:46:40;;;;;;;8.45;4.97;;;;;;;;;;5059345;28;20048;-76
2022/08/19 14:49:07;;;;;;;7.25;4.65;;;;;;;;;;5075885;28;20105;-76
2022/08/19 14:51:33;;;;;;;6.60;4.80;;;;;;;;;;5076951;28;20127;-76
2022/08/19 14:53:59;;;;;;;9.77;5.53;;;;;;;;;;5038277;28;20047;-76
2022/08/19 14:56:27;;;;;;;8.02;5.18;;;;;;;;;;5075107;28;20095;-76
2022/08/19 14:58:53;;;;;;;11.77;7.65;;;;;;;;;;5052106;28;20091;-76
2022/08/19 15:01:21;;;;;;;19.88;12.23;;;;;;;;;;5065598;28;20043;-76
2022/08/19 15:03:48;;;;;;;16.58;12.13;;;;;;;;;;5075801;28;20054;-76